createdAt,value
2018-04-19T00:08:28.453Z,27.20
2018-04-19T00:10:55.990Z,28.73
2018-04-19T00:13:23.567Z,29.63
2018-04-19T00:15:51.166Z,29.97
2018-04-19T00:18:18.831Z,29.37
2018-04-19T00:20:46.453Z,30.37
2018-04-19T00:23:14.021Z,31.30
2018-04-19T00:25:41.571Z,30.33
2018-04-19T00:28:09.129Z,29.03
2018-04-19T00:30:36.754Z,32.40
2018-04-19T00:33:04.354Z,32.70
2018-04-19T00:35:31.940Z,34.57
2018-04-19T00:37:59.480Z,35.40
2018-04-19T00:40:27.049Z,35.53
2018-04-19T00:42:54.634Z,33.67
2018-04-19T00:45:22.221Z,37.23
2018-04-19T00:47:49.777Z,37.83
2018-04-19T00:50:17.374Z,35.60
2018-04-19T00:52:56.720Z,35.87
2018-04-19T00:55:24.296Z,35.70
2018-04-19T00:57:52.184Z,38.10
2018-04-19T01:00:19.738Z,36.63
2018-04-19T01:02:47.288Z,36.53
2018-04-19T01:05:14.892Z,37.40
2018-04-19T01:07:42.473Z,37.17
2018-04-19T01:10:10.038Z,38.27
2018-04-19T01:12:37.636Z,40.73
2018-04-19T01:15:05.210Z,37.67
2018-04-19T01:17:32.777Z,39.47
2018-04-19T01:20:00.351Z,41.43
2018-04-19T01:22:27.901Z,39.77
2018-04-19T01:24:55.473Z,42.20
2018-04-19T01:27:23.053Z,41.97
2018-04-19T01:29:50.669Z,42.93
2018-04-19T01:32:18.226Z,40.23
2018-04-19T01:34:45.778Z,40.37
2018-04-19T01:37:13.365Z,40.73
2018-04-19T01:39:40.934Z,41.77
2018-04-19T01:42:08.531Z,42.43
2018-04-19T01:44:36.087Z,41.50
2018-04-19T01:47:03.701Z,41.43
2018-04-19T01:49:31.265Z,40.90
2018-04-19T01:51:58.815Z,40.10
2018-04-19T01:54:26.426Z,41.47
2018-04-19T01:56:54.438Z,41.10
2018-04-19T01:59:22.018Z,40.13
2018-04-19T02:02:06.393Z,40.50
2018-04-19T02:04:34.004Z,39.47
2018-04-19T02:07:01.576Z,41.87
2018-04-19T02:09:29.144Z,39.40
2018-04-19T02:11:56.746Z,38.40
2018-04-19T02:14:24.381Z,40.93
2018-04-19T02:16:51.981Z,39.83
2018-04-19T02:19:19.536Z,40.40
2018-04-19T02:21:47.113Z,41.93
2018-04-19T02:24:14.683Z,41.13
2018-04-19T02:26:42.275Z,40.63
2018-04-19T02:29:09.827Z,39.90
2018-04-19T02:31:37.401Z,41.03
2018-04-19T02:34:04.968Z,39.70
2018-04-19T02:36:32.689Z,40.87
2018-04-19T02:39:00.283Z,42.03
2018-04-19T02:41:27.846Z,43.50
2018-04-19T02:43:55.448Z,41.57
2018-04-19T02:46:23.004Z,43.80
2018-04-19T02:48:50.571Z,46.23
2018-04-19T02:51:18.152Z,42.17
2018-04-19T02:53:45.736Z,43.23
2018-04-19T02:56:13.316Z,44.23
2018-04-19T02:58:40.897Z,43.37
2018-04-19T03:01:08.493Z,41.77
2018-04-19T03:03:36.041Z,43.73
2018-04-19T03:06:03.628Z,43.03
2018-04-19T03:08:31.227Z,44.50
2018-04-19T03:10:58.922Z,44.53
2018-04-19T03:13:26.511Z,47.23
2018-04-19T03:15:54.365Z,44.70
2018-04-19T03:18:21.936Z,44.47
2018-04-19T03:20:49.518Z,45.50
2018-04-19T03:23:17.941Z,47.30
2018-04-19T03:25:45.537Z,45.23
2018-04-19T03:28:13.122Z,47.17
2018-04-19T03:30:40.704Z,45.80
2018-04-19T03:33:08.260Z,45.43
2018-04-19T03:35:35.795Z,45.57
2018-04-19T03:38:03.386Z,47.13
2018-04-19T03:40:30.962Z,45.77
2018-04-19T03:42:58.692Z,45.30
2018-04-19T03:45:26.251Z,46.30
2018-04-19T03:47:53.885Z,46.33
2018-04-19T03:50:21.445Z,46.87
2018-04-19T03:52:49.039Z,48.17
2018-04-19T03:55:16.627Z,47.47
2018-04-19T03:57:44.289Z,46.60
2018-04-19T04:00:11.854Z,47.90
2018-04-19T04:02:39.433Z,45.80
2018-04-19T04:05:06.983Z,46.70
2018-04-19T04:07:34.594Z,45.23
2018-04-19T04:10:02.221Z,45.47
2018-04-19T04:12:29.784Z,47.23
2018-04-19T04:14:57.352Z,46.60
2018-04-19T04:17:36.603Z,46.40
2018-04-19T04:23:27.213Z,47.27
2018-04-19T04:25:54.810Z,46.90
2018-04-19T04:28:22.382Z,50.10
2018-04-19T04:30:49.937Z,47.57
2018-04-19T04:33:17.619Z,47.17
2018-04-19T04:35:45.184Z,47.60
2018-04-19T04:38:12.792Z,47.43
2018-04-19T04:40:40.361Z,45.03
2018-04-19T04:43:07.899Z,44.63
2018-04-19T04:45:35.503Z,45.10
2018-04-19T04:48:03.065Z,45.20
2018-04-19T04:50:30.679Z,44.63
2018-04-19T04:52:58.251Z,44.90
2018-04-19T04:55:25.835Z,44.90
2018-04-19T04:57:53.441Z,44.50
2018-04-19T05:00:21.066Z,44.57
2018-04-19T05:02:49.616Z,43.50
2018-04-19T05:05:17.268Z,44.53
2018-04-19T05:07:44.833Z,43.47
2018-04-19T05:10:12.406Z,43.27
2018-04-19T05:12:40.006Z,46.53
2018-04-19T05:15:07.616Z,46.07
2018-04-19T05:17:35.277Z,45.33
2018-04-19T05:20:02.945Z,44.07
2018-04-19T05:22:30.532Z,44.47
2018-04-19T05:24:58.083Z,46.57
2018-04-19T05:27:25.646Z,45.20
2018-04-19T05:29:53.206Z,43.67
2018-04-19T05:32:20.780Z,44.87
2018-04-19T05:34:48.363Z,43.47
2018-04-19T05:37:15.978Z,42.83
2018-04-19T05:39:43.532Z,44.37
2018-04-19T05:42:11.134Z,43.37
2018-04-19T05:44:38.698Z,40.97
2018-04-19T05:47:06.256Z,42.83
2018-04-19T05:49:33.809Z,43.67
2018-04-19T05:52:01.392Z,40.83
2018-04-19T05:54:28.950Z,41.03
2018-04-19T05:56:56.525Z,42.03
2018-04-19T05:59:24.083Z,38.30
2018-04-19T06:01:51.690Z,37.93
2018-04-19T06:04:19.317Z,35.57
2018-04-19T06:06:46.870Z,36.97
2018-04-19T06:09:14.463Z,35.17
2018-04-19T06:11:42.046Z,34.37
2018-04-19T06:14:09.614Z,34.03
2018-04-19T06:16:37.170Z,33.67
2018-04-19T06:19:04.788Z,32.37
2018-04-19T06:21:32.347Z,33.30
2018-04-19T06:23:59.914Z,31.53
2018-04-19T06:26:27.474Z,33.27
2018-04-19T06:28:55.063Z,33.03
2018-04-19T06:31:22.606Z,31.63
2018-04-19T06:33:50.174Z,30.53
2018-04-19T06:36:17.733Z,30.57
2018-04-19T06:38:45.289Z,30.00
2018-04-19T06:41:12.846Z,31.07
2018-04-19T06:43:40.505Z,31.63
2018-04-19T06:46:08.060Z,28.27
2018-04-19T06:48:35.639Z,31.23
2018-04-19T06:51:03.181Z,30.33
2018-04-19T06:53:30.727Z,30.10
2018-04-19T06:55:58.314Z,30.03
2018-04-19T06:58:25.849Z,30.70
2018-04-19T07:00:53.401Z,28.90
2018-04-19T07:03:20.984Z,30.83
2018-04-19T07:05:48.558Z,29.97
2018-04-19T07:08:16.145Z,31.10
2018-04-19T07:10:43.705Z,29.57
2018-04-19T07:13:11.263Z,29.00
2018-04-19T07:15:38.805Z,30.10
2018-04-19T07:18:06.667Z,29.70
2018-04-19T07:20:34.220Z,27.93
2018-04-19T07:23:01.830Z,28.17
2018-04-19T07:25:29.368Z,28.00
2018-04-19T07:27:56.944Z,28.57
2018-04-19T07:30:24.528Z,29.13
2018-04-19T07:32:52.089Z,28.07
2018-04-19T07:35:19.716Z,27.10
2018-04-19T07:37:47.278Z,26.93
2018-04-19T07:40:14.839Z,27.83
2018-04-19T07:42:42.386Z,29.25
2018-04-19T07:45:09.958Z,28.27
2018-04-19T07:47:37.518Z,29.40
2018-04-19T07:50:05.072Z,28.00
2018-04-19T07:52:32.628Z,28.98
2018-04-19T07:55:00.179Z,29.48
2018-04-19T07:57:27.760Z,28.38
2018-04-19T07:59:55.326Z,27.85
2018-04-19T08:02:22.887Z,29.60
2018-04-19T08:04:50.456Z,27.98
2018-04-19T08:07:18.166Z,27.45
2018-04-19T08:09:45.746Z,26.35
2018-04-19T08:12:13.309Z,27.48
2018-04-19T08:14:40.897Z,28.25
2018-04-19T08:17:08.470Z,27.40
2018-04-19T08:19:36.155Z,28.42
2018-04-19T08:22:03.717Z,27.27
2018-04-19T08:24:31.304Z,29.00
2018-04-19T08:26:58.862Z,29.50
2018-04-19T08:29:26.802Z,26.95
2018-04-19T08:31:54.386Z,27.15
2018-04-19T08:34:21.923Z,28.70
2018-04-19T08:36:49.544Z,27.98
2018-04-19T08:39:17.104Z,26.33
2018-04-19T08:41:44.661Z,25.47
2018-04-19T08:44:12.233Z,25.20
2018-04-19T08:46:39.786Z,27.97
2018-04-19T08:49:07.352Z,26.00
2018-04-19T08:51:34.906Z,26.73
2018-04-19T08:54:02.496Z,27.93
2018-04-19T08:56:30.060Z,29.27
2018-04-19T08:58:57.617Z,26.30
2018-04-19T09:01:25.173Z,26.30
2018-04-19T09:03:52.757Z,26.73
2018-04-19T09:06:20.310Z,28.80
2018-04-19T09:08:47.882Z,23.90
2018-04-19T09:11:15.441Z,25.07
2018-04-19T09:13:43.004Z,27.23
2018-04-19T09:16:10.549Z,25.03
2018-04-19T09:18:38.130Z,25.23
2018-04-19T09:21:05.703Z,23.63
2018-04-19T09:23:33.272Z,24.27
2018-04-19T09:26:00.829Z,23.53
2018-04-19T09:28:28.419Z,22.93
2018-04-19T09:30:55.976Z,22.47
2018-04-19T09:33:23.648Z,22.97
2018-04-19T09:35:51.230Z,24.50
2018-04-19T09:38:18.811Z,22.47
2018-04-19T09:40:46.376Z,25.40
2018-04-19T09:43:13.932Z,23.73
2018-04-19T09:45:41.493Z,23.03
2018-04-19T09:48:09.053Z,20.90
2018-04-19T09:50:36.665Z,22.17
2018-04-19T09:53:04.299Z,23.13
2018-04-19T09:55:31.887Z,23.30
2018-04-19T09:58:10.355Z,20.93
2018-04-19T10:00:43.563Z,21.53
2018-04-19T10:03:16.683Z,23.00
2018-04-19T10:05:48.059Z,21.03
2018-04-19T10:08:15.615Z,22.77
2018-04-19T10:10:43.154Z,20.33
2018-04-19T10:13:10.709Z,18.13
2018-04-19T10:15:38.323Z,18.67
2018-04-19T10:18:05.885Z,18.63
2018-04-19T10:20:33.451Z,17.90
2018-04-19T10:23:01.041Z,19.30
2018-04-19T10:25:28.625Z,18.97
2018-04-19T10:27:56.205Z,18.80
2018-04-19T10:30:23.776Z,17.37
2018-04-19T10:32:51.318Z,15.53
2018-04-19T10:35:18.874Z,15.97
2018-04-19T10:37:46.433Z,15.10
2018-04-19T10:40:13.981Z,16.37
2018-04-19T10:42:41.553Z,16.73
2018-04-19T10:45:09.144Z,15.73
2018-04-19T10:47:36.720Z,15.77
2018-04-19T10:50:04.331Z,14.27
2018-04-19T10:52:31.881Z,14.37
2018-04-19T10:54:59.448Z,15.00
2018-04-19T10:57:27.005Z,13.57
2018-04-19T10:59:54.546Z,14.33
2018-04-19T11:02:22.127Z,13.87
2018-04-19T11:04:49.676Z,12.60
2018-04-19T11:07:17.245Z,12.20
2018-04-19T11:09:44.808Z,14.73
2018-04-19T11:12:12.361Z,13.33
2018-04-19T11:14:39.924Z,12.80
2018-04-19T11:17:07.484Z,11.50
2018-04-19T11:19:35.080Z,11.13
2018-04-19T11:22:02.642Z,11.53
2018-04-19T11:24:30.197Z,10.70
2018-04-19T11:26:57.752Z,9.87
2018-04-19T11:29:25.366Z,9.90
2018-04-19T11:31:52.918Z,9.20
2018-04-19T11:34:20.513Z,11.93
2018-04-19T11:36:48.057Z,9.70
2018-04-19T11:39:15.615Z,8.70
2018-04-19T11:41:43.178Z,9.53
2018-04-19T11:44:10.776Z,9.37
2018-04-19T11:46:38.343Z,7.10
2018-04-19T11:49:05.915Z,5.53
2018-04-19T11:51:33.479Z,4.20
2018-04-19T11:54:01.032Z,7.10
2018-04-19T11:56:28.603Z,6.03
2018-04-19T11:58:56.164Z,4.53
2018-04-19T12:01:23.721Z,5.67
2018-04-19T12:03:51.277Z,4.17
2018-04-19T12:06:18.805Z,3.50
2018-04-19T12:08:46.361Z,4.50
2018-04-19T12:11:13.921Z,3.70
2018-04-19T12:13:41.480Z,4.87
2018-04-19T12:16:09.033Z,4.17
2018-04-19T12:18:36.578Z,3.43
2018-04-19T12:21:04.143Z,2.53
2018-04-19T12:23:31.686Z,2.80
2018-04-19T12:25:59.252Z,3.00
2018-04-19T12:28:26.841Z,3.13
2018-04-19T12:30:54.406Z,3.70
2018-04-19T12:33:21.985Z,4.35
2018-04-19T12:35:49.579Z,3.43
2018-04-19T12:38:17.145Z,3.90
2018-04-19T12:40:44.723Z,4.20
2018-04-19T12:43:12.284Z,4.47
2018-04-19T12:45:39.821Z,1.90
2018-04-19T12:48:07.421Z,1.90
2018-04-19T12:50:34.959Z,2.00
2018-04-19T12:53:02.521Z,1.40
2018-04-19T12:55:30.061Z,1.83
2018-04-19T12:57:57.624Z,2.57
2018-04-19T13:00:25.188Z,2.63
2018-04-19T13:02:52.771Z,2.67
2018-04-19T13:05:20.342Z,2.23
2018-04-19T13:07:47.887Z,2.77
2018-04-19T13:10:15.447Z,3.00
2018-04-19T13:12:43.012Z,3.03
2018-04-19T13:15:10.569Z,1.60
2018-04-19T13:17:38.275Z,2.28
2018-04-19T13:20:05.894Z,2.63
2018-04-19T13:22:33.452Z,4.90
2018-04-19T13:25:01.048Z,4.65
2018-04-19T13:27:28.594Z,2.85
2018-04-19T13:29:56.161Z,4.40
2018-04-19T13:32:23.810Z,5.20
2018-04-19T13:34:51.617Z,4.47
2018-04-19T13:37:19.207Z,3.80
2018-04-19T13:39:46.782Z,3.78
2018-04-19T13:42:14.391Z,3.58
2018-04-19T13:44:41.966Z,3.50
2018-04-19T13:47:09.513Z,4.20
2018-04-19T13:49:37.149Z,4.07
2018-04-19T13:52:04.683Z,3.40
2018-04-19T13:54:32.268Z,2.90
2018-04-19T13:56:59.858Z,3.08
2018-04-19T13:59:27.429Z,3.58
2018-04-19T14:01:55.082Z,2.92
2018-04-19T14:04:22.620Z,3.25
2018-04-19T14:06:50.183Z,5.03
2018-04-19T14:09:17.782Z,3.50
2018-04-19T14:11:45.346Z,12.77
2018-04-19T14:14:12.945Z,11.43
2018-04-19T14:16:40.500Z,6.10
2018-04-19T14:19:08.054Z,7.40
2018-04-19T14:21:35.619Z,9.13
2018-04-19T14:24:03.201Z,8.38
2018-04-19T14:26:30.776Z,8.30
2018-04-19T14:28:58.322Z,7.87
2018-04-19T14:31:25.870Z,5.53
2018-04-19T14:33:53.456Z,7.37
2018-04-19T14:36:21.032Z,8.30
2018-04-19T14:38:48.590Z,9.63
2018-04-19T14:41:16.154Z,11.73
2018-04-19T14:43:43.720Z,11.27
2018-04-19T14:46:11.292Z,10.13
2018-04-19T14:48:38.867Z,9.50
2018-04-19T14:51:06.437Z,12.32
2018-04-19T14:53:34.040Z,10.73
2018-04-19T14:56:01.594Z,16.17
2018-04-19T14:58:29.157Z,18.83
2018-04-19T15:00:56.729Z,18.27
2018-04-19T15:03:24.655Z,15.73
2018-04-19T15:05:52.256Z,12.80
2018-04-19T15:08:20.011Z,11.57
2018-04-19T15:10:47.586Z,12.10
2018-04-19T15:13:15.221Z,11.30
2018-04-19T15:15:42.738Z,13.00
2018-04-19T15:18:10.295Z,15.27
2018-04-19T15:20:37.857Z,17.53
2018-04-19T15:23:05.417Z,15.00
2018-04-19T15:25:33.238Z,14.83
2018-04-19T15:28:00.804Z,16.03
2018-04-19T15:30:28.367Z,18.10
2018-04-19T15:32:55.938Z,21.30
2018-04-19T15:35:23.975Z,22.43
2018-04-19T15:37:51.539Z,22.23
2018-04-19T15:40:19.109Z,22.40
2018-04-19T15:42:46.684Z,21.87
2018-04-19T15:45:14.244Z,22.07
2018-04-19T15:47:41.796Z,21.80
2018-04-19T15:50:09.366Z,23.83
2018-04-19T15:52:36.916Z,23.30
2018-04-19T15:55:04.545Z,23.10
2018-04-19T15:57:32.090Z,22.13
2018-04-19T15:59:59.660Z,22.23
2018-04-19T16:02:27.279Z,22.40
2018-04-19T16:04:54.872Z,20.50
2018-04-19T16:07:22.482Z,21.20
2018-04-19T16:09:50.087Z,18.87
2018-04-19T16:12:17.639Z,19.43
2018-04-19T16:14:45.232Z,19.03
2018-04-19T16:17:12.832Z,18.83
2018-04-19T16:19:40.378Z,18.47
2018-04-19T16:22:07.940Z,20.60
2018-04-19T16:24:35.568Z,21.03
2018-04-19T16:27:03.647Z,20.27
2018-04-19T16:29:31.492Z,17.13
2018-04-19T16:31:59.049Z,18.73
2018-04-19T16:34:26.657Z,18.30
2018-04-19T16:36:54.206Z,19.00
2018-04-19T16:39:21.791Z,18.77
2018-04-19T16:41:49.362Z,19.83
2018-04-19T16:44:16.933Z,19.10
2018-04-19T16:46:44.493Z,19.70
2018-04-19T16:49:12.100Z,19.10
2018-04-19T16:51:39.680Z,18.07
2018-04-19T16:54:07.260Z,17.83
2018-04-19T16:56:35.030Z,17.50
2018-04-19T16:59:02.851Z,17.03
2018-04-19T17:01:30.415Z,17.00
2018-04-19T17:03:57.983Z,17.77
2018-04-19T17:06:25.650Z,18.40
2018-04-19T17:08:53.365Z,17.27
2018-04-19T17:11:20.949Z,17.60
2018-04-19T17:13:48.524Z,17.90
2018-04-19T17:16:16.133Z,17.40
2018-04-19T17:18:43.674Z,17.87
2018-04-19T17:21:11.228Z,16.83
2018-04-19T17:23:38.865Z,16.57
2018-04-19T17:26:06.622Z,17.37
2018-04-19T17:28:34.165Z,16.87
2018-04-19T17:31:01.888Z,17.60
2018-04-19T17:33:29.656Z,18.47
2018-04-19T17:35:57.215Z,16.53
2018-04-19T17:38:24.805Z,18.50
2018-04-19T17:40:52.391Z,17.80
2018-04-19T17:43:20.050Z,18.43
2018-04-19T17:45:47.605Z,16.77
2018-04-19T17:48:15.154Z,17.20
2018-04-19T17:50:42.988Z,16.70
2018-04-19T17:53:10.745Z,15.20
2018-04-19T17:55:38.305Z,15.73
2018-04-19T17:58:05.973Z,15.17
2018-04-19T18:00:33.690Z,14.33
2018-04-19T18:03:01.233Z,13.93
2018-04-19T18:05:28.822Z,14.20
2018-04-19T18:07:56.382Z,13.77
2018-04-19T18:10:23.962Z,13.03
2018-04-19T18:12:51.540Z,12.07
2018-04-19T18:15:19.101Z,13.00
2018-04-19T18:17:46.756Z,11.33
2018-04-19T18:20:14.810Z,11.83
2018-04-19T18:22:42.375Z,11.67
2018-04-19T18:25:10.312Z,11.93
2018-04-19T18:27:37.901Z,11.60
2018-04-19T18:30:05.485Z,11.67
2018-04-19T18:32:33.045Z,11.50
2018-04-19T18:35:00.824Z,11.53
2018-04-19T18:37:28.430Z,11.07
2018-04-19T18:39:56.009Z,11.07
2018-04-19T18:42:23.637Z,11.33
2018-04-19T18:44:51.233Z,11.33
2018-04-19T18:47:18.796Z,11.37
2018-04-19T18:49:46.414Z,11.23
2018-04-19T18:52:13.985Z,12.47
2018-04-19T18:54:41.553Z,12.20
2018-04-19T18:57:09.128Z,12.40
2018-04-19T18:59:36.694Z,10.87
2018-04-19T19:02:04.273Z,11.63
2018-04-19T19:04:31.864Z,12.47
2018-04-19T19:06:59.474Z,13.60
2018-04-19T19:09:27.128Z,13.20
2018-04-19T19:11:54.816Z,12.63
2018-04-19T19:14:22.399Z,14.07
2018-04-19T19:16:50.080Z,13.47
2018-04-19T19:19:36.679Z,14.33
2018-04-19T19:22:04.304Z,14.70
2018-04-19T19:24:32.181Z,14.40
2018-04-19T19:26:59.852Z,12.90
2018-04-19T19:29:27.721Z,14.77
2018-04-19T19:31:55.810Z,13.37
2018-04-19T19:34:23.875Z,13.03
2018-04-19T19:36:51.715Z,14.10
2018-04-19T19:39:19.342Z,13.60
2018-04-19T19:41:47.274Z,14.00
2018-04-19T19:44:15.222Z,14.10
2018-04-19T19:46:43.093Z,13.80
2018-04-19T19:49:10.698Z,13.33
2018-04-19T19:51:38.289Z,12.90
2018-04-19T19:54:05.863Z,14.10
2018-04-19T19:56:33.634Z,13.77
2018-04-19T19:59:01.219Z,14.37
2018-04-19T20:01:29.320Z,14.57
2018-04-19T20:03:58.002Z,14.23
2018-04-19T20:06:25.556Z,14.63
2018-04-19T20:08:53.146Z,13.80
2018-04-19T20:11:20.832Z,13.83
2018-04-19T20:19:40.341Z,16.30
2018-04-19T20:22:07.903Z,16.93
2018-04-19T20:24:35.479Z,17.93
2018-04-19T20:27:03.324Z,18.03
2018-04-19T20:29:30.976Z,18.70
2018-04-19T20:31:58.566Z,19.47
2018-04-19T20:34:26.148Z,20.97
2018-04-19T20:36:53.737Z,19.70
2018-04-19T20:39:21.377Z,20.23
2018-04-19T20:41:48.998Z,19.83
2018-04-19T20:44:16.596Z,20.70
2018-04-19T20:46:44.146Z,20.80
2018-04-19T20:49:11.721Z,20.30
2018-04-19T20:51:39.293Z,18.80
2018-04-19T20:54:06.851Z,20.23
2018-04-19T20:56:34.427Z,20.13
2018-04-19T20:59:01.993Z,20.17
2018-04-19T21:01:29.696Z,20.40
2018-04-19T21:03:57.280Z,20.37
2018-04-19T21:06:24.836Z,20.60
2018-04-19T21:08:52.442Z,20.77
2018-04-19T21:11:20.198Z,21.30
2018-04-19T21:13:47.785Z,21.53
2018-04-19T21:16:15.326Z,20.50
2018-04-19T21:18:42.890Z,21.30
2018-04-19T21:21:10.459Z,22.30
2018-04-19T21:23:38.070Z,21.60
2018-04-19T21:26:05.637Z,22.27
2018-04-19T21:28:33.208Z,21.40
2018-04-19T21:31:00.800Z,21.93
2018-04-19T21:33:28.376Z,21.47
2018-04-19T21:35:55.979Z,22.97
2018-04-19T21:38:23.549Z,22.00
2018-04-19T21:40:51.138Z,23.17
2018-04-19T21:43:18.704Z,22.33
2018-04-19T21:45:46.280Z,24.47
2018-04-19T21:48:13.823Z,22.63
2018-04-19T21:50:41.380Z,23.27
2018-04-19T21:53:08.952Z,23.20
2018-04-19T21:55:36.503Z,23.67
2018-04-19T21:58:04.054Z,25.17
2018-04-19T22:00:31.603Z,23.30
2018-04-19T22:02:59.181Z,24.97
2018-04-19T22:05:26.772Z,23.70
2018-04-19T22:07:54.335Z,23.07
2018-04-19T22:10:21.889Z,24.67
2018-04-19T22:12:49.457Z,24.50
2018-04-19T22:15:17.016Z,23.37
2018-04-19T22:17:44.589Z,23.30
2018-04-19T22:20:12.141Z,25.03
2018-04-19T22:22:39.693Z,25.43
2018-04-19T22:25:07.255Z,24.37
2018-04-19T22:27:34.876Z,25.80
2018-04-19T22:30:02.452Z,23.80
2018-04-19T22:32:30.026Z,24.47
2018-04-19T22:34:57.609Z,24.90
2018-04-19T22:37:25.180Z,24.43
2018-04-19T22:39:52.759Z,25.77
2018-04-19T22:42:20.293Z,26.43
2018-04-19T22:44:47.939Z,24.67
2018-04-19T22:47:15.488Z,24.73
2018-04-19T22:49:43.037Z,27.93
2018-04-19T22:52:10.611Z,26.23
2018-04-19T22:54:38.155Z,26.13
2018-04-19T22:57:05.708Z,27.53
2018-04-19T22:59:33.304Z,25.57
2018-04-19T23:02:00.838Z,25.03
2018-04-19T23:04:28.498Z,26.40
2018-04-19T23:06:56.080Z,25.87
2018-04-19T23:09:23.623Z,24.67
2018-04-19T23:11:51.195Z,27.43
2018-04-19T23:14:18.737Z,26.83
2018-04-19T23:16:46.293Z,26.00
2018-04-19T23:19:13.839Z,26.03
2018-04-19T23:21:41.412Z,26.57
2018-04-19T23:24:08.979Z,25.40
2018-04-19T23:26:36.532Z,26.97
2018-04-19T23:29:04.135Z,26.47
2018-04-19T23:31:31.706Z,26.60
2018-04-19T23:33:59.251Z,25.77
2018-04-19T23:36:26.836Z,26.97
2018-04-19T23:38:54.391Z,27.57
2018-04-19T23:41:21.971Z,26.23
2018-04-19T23:43:49.552Z,26.20
2018-04-19T23:46:17.120Z,25.70
2018-04-19T23:48:44.663Z,26.30
2018-04-19T23:51:12.221Z,25.07
2018-04-19T23:53:39.786Z,25.40
2018-04-19T23:56:07.342Z,25.00
2018-04-19T23:58:34.911Z,26.37
